AirNav  
 
 958 users online  

UT00 Swains Creek Airport
Alton, Utah, USA

GOING TO ALTON?


FAA INFORMATION EFFECTIVE 12 OCTOBER 2017

Location

FAA Identifier: UT00
Lat/Long: 37-28-19.9310N / 112-37-19.7650W
37-28.332183N / 112-37.329417W
37.4722031 / -112.6221569
(estimated)
Elevation: 7780 ft. / 2371 m (estimated)
Variation: 14E (1985)
From city: 7 miles NW of ALTON, UT
Time zone: UTC -6 (UTC -7 during Standard Time)
Zip code: 84762

Airport Operations

Airport use: Private use. Permission required prior to landing
Activation date: 03/1973
Control tower: no
ARTCC: SALT LAKE CITY CENTER
FSS: CEDAR CITY FLIGHT SERVICE STATION
Attendance: UNATNDD
Wind indicator: yes
Segmented circle: no

Nearby radio navigation aids

VOR radial/distance  VOR name  Freq  Var
BCEr214/20.0BRYCE CANYON VORTAC112.8015E
EHKr116/28.4ENOCH VOR/DME117.3016E

 
NDB name  Hdg/Dist  Freq  Var  ID
COLORADO CITY018/35.940313EAZC .- --.. -.-.

Airport Services

Airframe service: NONE
Powerplant service: NONE

Runway Information

Runway 1/19

Dimensions: 5600 x 50 ft. / 1707 x 15 m
Surface: dirt, in good condition
RUNWAY 1  RUNWAY 19
Traffic pattern: rightleft
Obstructions: 200 ft. trees, 1200 ft. from runway, 8:1 slope to clear
+150' TREES 100' LEFT OF CNTRLN EXTNDD.
15 ft. road, 25 ft. from runway, 2:1 slope to clear

Airport Ownership and Management from official FAA records

Ownership: Privately-owned
Owner: SWAINS CREEK PINES LOT OWNERS
PO BOX 1164
DUCK CREEK VILLAGE, UT 84762
Phone (435) 682-3127
Manager: ANDREW OSTERHOUT
PO BOX 1164
DUCK CREEK VILLAGE, UT 84762
Phone 435-682-3127

Airport Operational Statistics

Aircraft operations: avg 37/week
92% transient general aviation
8% local general aviation

Additional Remarks

RWY COND: GOOD; TAKEOFF TO NORTH & LAND TO SOUTH ADVISABLE DUE TO RWY GRADIENT AND TERRAIN RISE TO SOUTH.

Instrument Procedures

There are no published instrument procedures at UT00.

Some nearby airports with instrument procedures:

U55 - Panguitch Municipal Airport (25 nm NE)
KCDC - Cedar City Regional Airport (26 nm NW)
KBCE - Bryce Canyon Airport (27 nm NE)
KKNB - Kanab Municipal Airport (28 nm S)
KAZC - Colorado City Municipal Airport (36 nm SW)
 
Loc | Ops | Rwys | IFR | FBO | Links
Com | Nav | Svcs | Stats | Notes


 
Area around UT00 (Swains Creek Airport)
 
Road maps at: MapQuest Bing Google
 
Aerial photo
No photo
 
Sectional chart

 
Airport distance calculator
Flying to Swains Creek Airport? Find the distance to fly.

From to UT00

Sunrise and sunset
Times for 18-Oct-2017
 Local
(UTC-6)
 Zulu
(UTC)
Morning civil twilight07:1613:16
Sunrise07:4313:43
Sunset18:4900:49
Evening civil twilight19:1501:15

Current date and time
Zulu (UTC)  19-Oct-2017 00:54:14
Local (UTC-6)  18-Oct-2017 18:54:14
 
METAR
KBCE 
26nm NE 
182353Z AUTO 25003KT 10SM OVC100 17/M01 A3027 RMK AO2 SLP167 T01671006 10194 20167 58002
KCDC 
27nm NW 
182353Z AUTO 00000KT 10SM SCT110 18/M06 A3014 RMK AO2 SLP166 T01831061 10206 20167 58008
KAZC 
36nm SW 
190035Z AUTO 29003KT 10SM OVC120 22/M07 A3013 RMK AO2
TAF
KBCE 
26nm NE 
181724Z 1818/1918 14011KT P6SM SCT100 BKN180 FM190200 26006KT P6SM BKN100 BKN140
KCDC 
27nm NW 
181724Z 1818/1918 VRB05KT P6SM SCT140 BKN200 FM181900 23011KT P6SM SCT110 BKN150 FM190300 16006KT P6SM SCT100 BKN140
NOTAMs
Click for the latest NOTAMs
NOTAMs are issued by the DoD/FAA and will open in a separate window not controlled by AirNav.

 

 
 

Would you like to see your business listed on this page?

 If your business provides an interesting product or service to pilots, flight crews, aircraft, or users of the Swains Creek Airport, you should consider listing it here.  To start the listing process, click on the button below
 
Add a business
 

Other Pages about Swains Creek Airport

Update a link
 
Copyright © AirNav, LLC. All rights reserved. Privacy Policy  Contact